Terminal Aerodrome Forecast
Issued by NWS

Home | Current Version | Previous Version | Text Only | Print | Product List | Glossary On
Versions: 1 2 3 4 5 6 7 8 9 10 11 12 13 14 15
000
FTUS45 KABQ 011700
TAFGUP
TAF
KGUP 011732Z 0118/0218 24010KT P6SM SCT070 SCT110
     FM012000 31010KT P6SM VCTS SCT060CB BKN100
      TEMPO 0120/0124 VRB20G30KT 6SM TSRA BKN050CB
     FM020000 12008KT P6SM VCSH BKN060 BKN090
     FM020600 VRB06KT P6SM SCT070 BKN120=

USA.gov is the U.S. government's official web portal to all federal, state and local government web resources and services.